createdAt,value
2018-09-06T00:02:12.158Z,15.54
2018-09-06T00:04:39.263Z,15.50
2018-09-06T00:07:06.537Z,15.49
2018-09-06T00:09:33.643Z,15.46
2018-09-06T00:12:00.740Z,15.48
2018-09-06T00:14:27.969Z,15.49
2018-09-06T00:16:55.174Z,15.49
2018-09-06T00:19:22.403Z,15.52
2018-09-06T00:21:49.575Z,15.58
2018-09-06T00:24:16.709Z,15.56
2018-09-06T00:26:43.979Z,15.62
2018-09-06T00:29:11.134Z,15.59
2018-09-06T00:31:38.398Z,15.58
2018-09-06T00:34:05.816Z,15.56
2018-09-06T00:36:32.943Z,15.52
2018-09-06T00:39:00.112Z,15.47
2018-09-06T00:41:27.214Z,15.42
2018-09-06T00:43:54.506Z,15.36
2018-09-06T00:46:21.637Z,15.32
2018-09-06T00:48:48.761Z,15.28
2018-09-06T00:51:16.065Z,15.23
2018-09-06T00:53:43.165Z,15.21
2018-09-06T00:56:10.413Z,15.17
2018-09-06T00:58:37.753Z,15.10
2018-09-06T01:01:11.982Z,15.09
2018-09-06T01:03:39.235Z,15.04
2018-09-06T01:06:06.683Z,15.01
2018-09-06T01:08:33.948Z,15.01
2018-09-06T01:11:01.092Z,15.00
2018-09-06T01:13:28.253Z,14.94
2018-09-06T01:15:55.475Z,14.93
2018-09-06T01:18:22.680Z,14.92
2018-09-06T01:20:49.979Z,14.91
2018-09-06T01:23:20.395Z,14.88
2018-09-06T01:25:48.046Z,14.86
2018-09-06T01:28:16.378Z,14.85
2018-09-06T01:30:43.503Z,14.83
2018-09-06T01:33:10.853Z,14.84
2018-09-06T01:35:42.535Z,14.84
2018-09-06T01:38:09.623Z,14.83
2018-09-06T01:40:36.897Z,14.84
2018-09-06T01:43:04.037Z,14.87
2018-09-06T01:45:31.365Z,14.84
2018-09-06T01:47:58.515Z,14.86
2018-09-06T01:50:27.682Z,14.86
2018-09-06T01:52:54.870Z,14.81
2018-09-06T01:55:22.093Z,14.81
2018-09-06T01:57:49.320Z,14.78
2018-09-06T02:00:16.434Z,14.77
2018-09-06T02:02:43.615Z,14.76
2018-09-06T02:05:14.613Z,14.73
2018-09-06T02:07:41.723Z,14.74
2018-09-06T02:10:08.967Z,14.71
2018-09-06T02:12:36.075Z,14.70
2018-09-06T02:15:03.235Z,14.67
2018-09-06T02:17:30.443Z,14.64
2018-09-06T02:19:57.578Z,14.63
2018-09-06T02:22:26.889Z,14.65
2018-09-06T02:24:54.053Z,14.64
2018-09-06T02:27:21.175Z,14.63
2018-09-06T02:29:48.478Z,14.61
2018-09-06T02:32:15.629Z,14.57
2018-09-06T02:34:42.870Z,14.61
2018-09-06T02:37:09.994Z,14.61
2018-09-06T02:39:37.151Z,14.63
2018-09-06T02:42:04.419Z,14.62
2018-09-06T02:44:31.535Z,14.67
2018-09-06T02:46:58.832Z,14.71
2018-09-06T02:49:31.628Z,14.83
2018-09-06T02:51:58.772Z,14.86
2018-09-06T02:54:26.037Z,14.91
2018-09-06T02:56:53.145Z,14.96
2018-09-06T02:59:20.468Z,15.07
2018-09-06T03:02:00.374Z,15.06
2018-09-06T03:04:27.584Z,15.14
2018-09-06T03:06:54.788Z,15.17
2018-09-06T03:09:22.720Z,15.21
2018-09-06T03:11:55.893Z,15.20
2018-09-06T03:14:23.032Z,15.19
2018-09-06T03:16:50.199Z,15.21
2018-09-06T03:19:17.444Z,15.26
2018-09-06T03:21:44.689Z,15.29
2018-09-06T03:24:11.807Z,15.31
2018-09-06T03:26:38.961Z,15.36
2018-09-06T03:29:06.190Z,15.38
2018-09-06T03:31:33.322Z,15.46
2018-09-06T03:34:00.604Z,15.40
2018-09-06T03:36:27.746Z,15.45
2018-09-06T03:38:54.848Z,15.44
2018-09-06T03:41:22.092Z,15.40
2018-09-06T03:43:49.324Z,15.44
2018-09-06T03:46:16.719Z,15.39
2018-09-06T03:48:43.860Z,15.40
2018-09-06T03:51:10.967Z,15.34
2018-09-06T03:53:38.167Z,15.33
2018-09-06T03:56:05.409Z,15.34
2018-09-06T03:58:32.703Z,15.36
2018-09-06T04:00:59.935Z,15.34
2018-09-06T04:03:27.115Z,15.29
2018-09-06T04:05:54.275Z,15.28
2018-09-06T04:08:21.388Z,15.26
2018-09-06T04:10:48.652Z,15.14
2018-09-06T04:13:15.753Z,15.14
2018-09-06T04:15:42.849Z,15.13
2018-09-06T04:18:10.168Z,15.11
2018-09-06T04:20:37.290Z,15.08
2018-09-06T04:23:04.556Z,15.01
2018-09-06T04:25:31.740Z,14.94
2018-09-06T04:27:58.837Z,14.85
2018-09-06T04:30:25.985Z,14.80
2018-09-06T04:32:53.111Z,14.80
2018-09-06T04:35:20.379Z,14.79
2018-09-06T04:37:47.451Z,14.79
2018-09-06T04:40:14.667Z,14.82
2018-09-06T04:42:41.845Z,14.80
2018-09-06T04:45:08.980Z,14.90
2018-09-06T04:47:36.272Z,14.96
2018-09-06T04:50:03.448Z,15.02
2018-09-06T04:52:30.605Z,15.03
2018-09-06T04:54:58.234Z,15.07
2018-09-06T04:57:25.703Z,15.15
2018-09-06T04:59:52.987Z,15.22
2018-09-06T05:02:20.632Z,15.32
2018-09-06T05:04:47.759Z,15.41
2018-09-06T05:07:14.907Z,15.49
2018-09-06T05:09:42.076Z,15.63
2018-09-06T05:12:09.577Z,15.66
2018-09-06T05:14:36.739Z,15.78
2018-09-06T05:17:03.947Z,15.78
2018-09-06T05:19:31.244Z,15.92
2018-09-06T05:21:58.401Z,16.06
2018-09-06T05:24:25.661Z,16.13
2018-09-06T05:26:52.831Z,16.26
2018-09-06T05:29:19.927Z,16.40
2018-09-06T05:31:47.169Z,16.48
2018-09-06T05:34:14.303Z,16.58
2018-09-06T05:36:41.535Z,16.64
2018-09-06T05:39:10.159Z,16.71
2018-09-06T05:41:37.697Z,16.82
2018-09-06T05:44:05.052Z,17.00
2018-09-06T05:46:33.292Z,17.13
2018-09-06T05:49:00.639Z,17.36
2018-09-06T05:51:27.782Z,17.32
2018-09-06T05:53:54.972Z,17.47
2018-09-06T05:56:22.167Z,17.51
2018-09-06T05:58:49.298Z,17.53
2018-09-06T06:01:16.617Z,17.48
2018-09-06T06:03:44.430Z,17.52
2018-09-06T06:06:11.539Z,17.41
2018-09-06T06:08:41.056Z,17.44
2018-09-06T06:11:08.232Z,17.41
2018-09-06T06:13:35.494Z,17.30
2018-09-06T06:16:02.782Z,17.34
2018-09-06T06:18:29.823Z,17.19
2018-09-06T06:20:57.038Z,17.29
2018-09-06T06:23:24.305Z,17.29
2018-09-06T06:25:51.578Z,17.17
2018-09-06T06:28:18.771Z,17.37
2018-09-06T06:30:45.932Z,17.42
2018-09-06T06:33:13.116Z,17.40
2018-09-06T06:35:40.264Z,17.35
2018-09-06T06:38:07.578Z,17.36
2018-09-06T06:40:34.713Z,17.49
2018-09-06T06:43:01.828Z,17.60
2018-09-06T06:45:29.063Z,17.78
2018-09-06T06:47:56.196Z,17.78
2018-09-06T06:50:23.581Z,17.88
2018-09-06T06:52:50.725Z,18.02
2018-09-06T06:55:17.879Z,18.07
2018-09-06T06:57:45.090Z,18.15
2018-09-06T07:00:12.380Z,18.31
2018-09-06T07:02:39.609Z,18.45
2018-09-06T07:05:06.741Z,18.39
2018-09-06T07:07:33.940Z,18.59
2018-09-06T07:10:01.180Z,18.57
2018-09-06T07:12:28.264Z,18.58
2018-09-06T07:14:55.539Z,18.55
2018-09-06T07:17:22.652Z,18.69
2018-09-06T07:19:49.868Z,18.82
2018-09-06T07:22:17.102Z,18.84
2018-09-06T07:24:44.329Z,18.89
2018-09-06T07:27:11.563Z,19.16
2018-09-06T07:29:38.726Z,19.39
2018-09-06T07:32:05.936Z,19.34
2018-09-06T07:34:33.103Z,19.69
2018-09-06T07:37:00.268Z,19.81
2018-09-06T07:39:27.535Z,20.20
2018-09-06T07:41:54.648Z,20.16
2018-09-06T07:44:21.854Z,20.23
2018-09-06T07:46:49.063Z,20.02
2018-09-06T07:49:16.186Z,20.23
2018-09-06T07:51:43.501Z,20.52
2018-09-06T07:54:10.597Z,20.47
2018-09-06T07:56:37.699Z,20.73
2018-09-06T07:59:06.992Z,20.83
2018-09-06T08:01:34.133Z,20.94
2018-09-06T08:04:01.621Z,20.68
2018-09-06T08:06:28.834Z,20.63
2018-09-06T08:08:55.943Z,20.92
2018-09-06T08:11:23.098Z,21.51
2018-09-06T08:13:50.244Z,21.65
2018-09-06T08:16:17.628Z,21.89
2018-09-06T08:18:44.745Z,21.89
2018-09-06T08:21:11.962Z,21.98
2018-09-06T08:23:39.163Z,22.32
2018-09-06T08:26:06.418Z,22.38
2018-09-06T08:28:40.242Z,22.29
2018-09-06T08:31:07.826Z,22.76
2018-09-06T08:33:35.141Z,23.05
2018-09-06T08:36:02.364Z,23.31
2018-09-06T08:38:29.495Z,23.46
2018-09-06T08:40:56.746Z,23.65
2018-09-06T08:43:23.934Z,23.24
2018-09-06T08:45:51.055Z,23.78
2018-09-06T08:48:18.283Z,24.06
2018-09-06T08:50:45.462Z,23.90
2018-09-06T08:53:12.736Z,24.12
2018-09-06T08:55:39.891Z,24.01
2018-09-06T08:58:07.102Z,24.65
2018-09-06T09:00:36.880Z,23.80
2018-09-06T09:03:04.794Z,24.18
2018-09-06T09:05:32.099Z,24.36
2018-09-06T09:07:59.569Z,24.17
2018-09-06T09:10:26.801Z,24.65
2018-09-06T09:12:54.043Z,24.66
2018-09-06T09:15:21.156Z,25.12
2018-09-06T09:17:48.409Z,25.35
2018-09-06T09:20:16.193Z,25.56
2018-09-06T09:22:43.428Z,25.60
2018-09-06T09:25:10.618Z,25.67
2018-09-06T09:27:37.836Z,25.49
2018-09-06T09:30:05.189Z,25.46
2018-09-06T09:32:34.253Z,25.62
2018-09-06T09:35:01.463Z,25.68
2018-09-06T09:37:28.712Z,25.77
2018-09-06T09:39:55.831Z,25.14
2018-09-06T09:42:23.180Z,25.31
2018-09-06T09:44:50.314Z,26.23
2018-09-06T09:49:44.317Z,25.66
2018-09-06T09:52:11.433Z,25.78
2018-09-06T09:54:38.688Z,25.95
2018-09-06T09:57:05.955Z,25.40
2018-09-06T09:59:33.096Z,26.30
2018-09-06T10:02:06.140Z,26.67
2018-09-06T10:04:39.253Z,26.84
2018-09-06T10:07:12.990Z,26.86
2018-09-06T10:09:40.126Z,26.98
2018-09-06T10:12:07.429Z,25.73
2018-09-06T10:14:34.607Z,26.32
2018-09-06T10:17:01.764Z,26.38
2018-09-06T10:19:29.293Z,25.37
2018-09-06T10:21:56.507Z,26.04
2018-09-06T10:24:23.680Z,26.15
2018-09-06T10:26:50.857Z,26.40
2018-09-06T10:29:18.046Z,27.00
2018-09-06T10:31:45.293Z,26.85
2018-09-06T10:34:12.398Z,26.74
2018-09-06T10:36:39.621Z,26.42
2018-09-06T10:39:08.095Z,26.94
2018-09-06T10:41:35.239Z,27.71
2018-09-06T10:44:02.616Z,26.64
2018-09-06T10:46:30.919Z,25.66
2018-09-06T10:48:58.330Z,26.11
2018-09-06T10:51:26.040Z,27.15
2018-09-06T10:53:53.363Z,27.47
2018-09-06T10:56:21.882Z,26.91
2018-09-06T10:58:49.384Z,26.81
2018-09-06T11:01:21.353Z,27.06
2018-09-06T11:03:49.749Z,26.69
2018-09-06T11:06:16.940Z,25.34
2018-09-06T11:08:44.224Z,25.08
2018-09-06T11:11:11.437Z,24.59
2018-09-06T11:13:38.676Z,25.31
2018-09-06T11:16:05.844Z,26.40
2018-09-06T11:18:32.999Z,26.64
2018-09-06T11:21:00.750Z,26.16
2018-09-06T11:23:28.124Z,25.48
2018-09-06T11:25:55.327Z,25.73
2018-09-06T11:28:22.534Z,26.16
2018-09-06T11:30:49.630Z,26.43
2018-09-06T11:33:16.984Z,27.01
2018-09-06T11:35:44.356Z,26.70
2018-09-06T11:38:11.537Z,26.29
2018-09-06T11:40:42.759Z,26.61
2018-09-06T11:43:09.915Z,26.30
2018-09-06T11:45:37.195Z,26.95
2018-09-06T11:48:05.924Z,27.18
2018-09-06T11:50:33.199Z,26.18
2018-09-06T11:53:00.321Z,26.17
2018-09-06T11:55:27.497Z,25.45
2018-09-06T11:57:54.756Z,25.76
2018-09-06T12:00:22.793Z,25.67
2018-09-06T12:02:50.034Z,25.74
2018-09-06T12:05:17.164Z,25.64
2018-09-06T12:07:44.300Z,25.54
2018-09-06T12:10:11.667Z,25.43
2018-09-06T12:12:38.852Z,26.12
2018-09-06T12:15:06.051Z,26.19
2018-09-06T12:17:33.265Z,25.66
2018-09-06T12:20:00.448Z,25.38
2018-09-06T12:22:27.693Z,25.50
2018-09-06T12:24:54.930Z,25.22
2018-09-06T12:27:22.169Z,25.31
2018-09-06T12:29:49.454Z,25.28
2018-09-06T12:32:16.733Z,25.61
2018-09-06T12:34:43.992Z,25.87
2018-09-06T12:37:13.166Z,26.09
2018-09-06T12:39:41.684Z,26.16
2018-09-06T12:42:08.848Z,26.37
2018-09-06T12:44:36.059Z,26.41
2018-09-06T12:47:03.509Z,26.18
2018-09-06T12:49:30.759Z,25.75
2018-09-06T12:51:57.939Z,25.76
2018-09-06T12:54:25.113Z,25.51
2018-09-06T12:56:52.267Z,25.40
2018-09-06T12:59:19.645Z,25.76
2018-09-06T13:01:46.829Z,25.73
2018-09-06T13:04:13.996Z,25.92
2018-09-06T13:06:41.189Z,25.61
2018-09-06T13:09:08.670Z,25.68
2018-09-06T13:11:36.457Z,25.86
2018-09-06T13:14:03.689Z,26.06
2018-09-06T13:16:30.920Z,26.30
2018-09-06T13:18:58.045Z,26.37
2018-09-06T13:21:25.175Z,26.22
2018-09-06T13:23:52.435Z,26.25
2018-09-06T13:26:19.582Z,26.12
2018-09-06T13:28:46.780Z,25.94
2018-09-06T13:31:14.004Z,25.96
2018-09-06T13:33:41.146Z,26.13
2018-09-06T13:36:08.639Z,26.23
2018-09-06T13:38:35.824Z,26.22
2018-09-06T13:41:03.027Z,25.80
2018-09-06T13:43:30.199Z,25.86
2018-09-06T13:45:57.332Z,25.73
2018-09-06T13:48:24.561Z,25.35
2018-09-06T13:50:51.695Z,25.07
2018-09-06T13:53:18.915Z,25.02
2018-09-06T13:55:46.087Z,25.30
2018-09-06T13:58:13.205Z,24.94
2018-09-06T14:00:40.486Z,25.16
2018-09-06T14:03:07.581Z,25.29
2018-09-06T14:05:34.755Z,25.01
2018-09-06T14:08:01.929Z,25.02
2018-09-06T14:10:29.045Z,25.22
2018-09-06T14:12:56.301Z,25.18
2018-09-06T14:15:23.609Z,25.31
2018-09-06T14:17:50.841Z,25.46
2018-09-06T14:20:17.991Z,25.33
2018-09-06T14:22:45.264Z,25.19
2018-09-06T14:25:12.528Z,25.28
2018-09-06T14:27:39.659Z,25.17
2018-09-06T14:30:06.884Z,25.14
2018-09-06T14:32:33.999Z,25.18
2018-09-06T14:35:01.107Z,25.33
2018-09-06T14:37:28.387Z,25.22
2018-09-06T14:39:55.661Z,25.59
2018-09-06T14:42:22.832Z,26.05
2018-09-06T14:44:50.036Z,26.13
2018-09-06T14:47:17.157Z,26.35
2018-09-06T14:49:44.439Z,26.03
2018-09-06T14:52:11.598Z,25.52
2018-09-06T14:54:38.740Z,25.14
2018-09-06T14:57:05.875Z,25.14
2018-09-06T14:59:33.065Z,25.03
2018-09-06T15:02:00.366Z,25.14
2018-09-06T15:04:27.480Z,25.39
2018-09-06T15:06:54.687Z,25.21
2018-09-06T15:09:21.805Z,25.32
2018-09-06T15:11:48.921Z,25.41
2018-09-06T15:14:16.223Z,25.08
2018-09-06T15:16:43.337Z,25.22
2018-09-06T15:19:10.573Z,24.98
2018-09-06T15:21:37.739Z,24.62
2018-09-06T15:24:04.839Z,24.39
2018-09-06T15:26:32.105Z,24.36
2018-09-06T15:28:59.276Z,24.07
2018-09-06T15:31:26.883Z,23.94
2018-09-06T15:33:53.976Z,23.89
2018-09-06T15:36:21.236Z,23.85
2018-09-06T15:38:48.513Z,23.96
2018-09-06T15:41:15.668Z,23.96
2018-09-06T15:43:42.860Z,24.03
2018-09-06T15:46:10.248Z,24.11
2018-09-06T15:48:37.369Z,24.13
2018-09-06T15:51:04.733Z,24.13
2018-09-06T15:53:31.888Z,24.16
2018-09-06T15:55:59.095Z,24.06
2018-09-06T15:58:26.273Z,24.04
2018-09-06T16:00:53.634Z,23.93
2018-09-06T16:03:20.875Z,23.87
2018-09-06T16:05:48.052Z,23.88
2018-09-06T16:08:15.240Z,23.77
2018-09-06T16:10:42.364Z,23.64
2018-09-06T16:13:09.533Z,23.49
2018-09-06T16:15:36.780Z,23.46
2018-09-06T16:18:03.998Z,23.35
2018-09-06T16:20:31.215Z,23.26
2018-09-06T16:22:58.345Z,23.17
2018-09-06T16:25:25.475Z,23.08
2018-09-06T16:27:52.750Z,23.08
2018-09-06T16:30:19.984Z,22.93
2018-09-06T16:32:47.099Z,22.86
2018-09-06T16:35:14.240Z,22.72
2018-09-06T16:37:41.346Z,22.74
2018-09-06T16:40:08.567Z,22.66
2018-09-06T16:42:35.749Z,22.55
2018-09-06T16:45:02.944Z,22.54
2018-09-06T16:47:30.060Z,22.51
2018-09-06T16:49:57.216Z,22.37
2018-09-06T16:52:24.525Z,22.38
2018-09-06T16:54:51.676Z,22.38
2018-09-06T16:57:18.890Z,22.32
2018-09-06T16:59:46.007Z,22.29
2018-09-06T17:02:13.114Z,22.23
2018-09-06T17:04:40.596Z,22.18
2018-09-06T17:07:07.711Z,22.20
2018-09-06T17:09:34.865Z,22.08
2018-09-06T17:12:02.026Z,22.08
2018-09-06T17:14:29.160Z,22.03
2018-09-06T17:16:56.391Z,22.00
2018-09-06T17:19:23.568Z,21.91
2018-09-06T17:21:50.793Z,21.85
2018-09-06T17:24:17.892Z,21.75
2018-09-06T17:26:45.079Z,21.76
2018-09-06T17:29:12.338Z,21.67
2018-09-06T17:31:39.462Z,21.56
2018-09-06T17:34:06.720Z,21.50
2018-09-06T17:36:33.954Z,21.48
2018-09-06T17:39:01.201Z,21.41
2018-09-06T17:41:28.425Z,21.23
2018-09-06T17:43:55.581Z,21.16
2018-09-06T17:46:22.748Z,21.00
2018-09-06T17:48:49.992Z,21.00
2018-09-06T17:51:17.124Z,20.93
2018-09-06T17:53:44.405Z,20.86
2018-09-06T17:56:11.727Z,20.76
2018-09-06T17:58:38.907Z,20.71
2018-09-06T18:01:22.175Z,20.66
2018-09-06T18:03:49.525Z,20.52
2018-09-06T18:06:16.645Z,20.48
2018-09-06T18:08:43.900Z,20.41
2018-09-06T18:11:11.340Z,20.32
2018-09-06T18:13:39.952Z,20.16
2018-09-06T18:16:09.119Z,20.16
2018-09-06T18:18:36.871Z,20.03
2018-09-06T18:21:04.129Z,19.97
2018-09-06T18:23:31.349Z,19.95
2018-09-06T18:25:58.481Z,19.91
2018-09-06T18:28:25.897Z,19.83
2018-09-06T18:30:53.113Z,19.77
2018-09-06T18:33:20.287Z,19.80
2018-09-06T18:35:48.177Z,19.74
2018-09-06T18:38:15.567Z,19.65
2018-09-06T18:40:44.433Z,19.65
2018-09-06T18:43:11.571Z,19.55
2018-09-06T18:45:38.845Z,19.54
2018-09-06T18:48:06.121Z,19.49
2018-09-06T18:50:33.227Z,19.44
2018-09-06T18:53:00.525Z,19.39
2018-09-06T18:55:27.765Z,19.33
2018-09-06T18:57:55.049Z,19.25
2018-09-06T19:00:22.225Z,19.23
2018-09-06T19:02:49.393Z,19.23
2018-09-06T19:05:16.635Z,19.09
2018-09-06T19:07:43.903Z,19.07
2018-09-06T19:10:11.185Z,19.09
2018-09-06T19:12:38.300Z,19.06
2018-09-06T19:15:05.666Z,19.01
2018-09-06T19:17:33.120Z,18.96
2018-09-06T19:20:00.254Z,18.97
2018-09-06T19:22:27.684Z,18.89
2018-09-06T19:24:54.817Z,18.87
2018-09-06T19:27:21.953Z,18.84
2018-09-06T19:29:49.357Z,18.88
2018-09-06T19:32:16.457Z,18.88
2018-09-06T19:34:43.676Z,18.91
2018-09-06T19:37:10.836Z,18.87
2018-09-06T19:39:37.913Z,18.87
2018-09-06T19:42:05.196Z,18.86
2018-09-06T19:44:32.392Z,18.90
2018-09-06T19:46:59.562Z,18.85
2018-09-06T19:49:26.670Z,18.82
2018-09-06T19:51:53.856Z,18.77
2018-09-06T19:54:21.233Z,18.75
2018-09-06T19:56:48.301Z,18.72
2018-09-06T19:59:16.408Z,18.70
2018-09-06T20:01:43.533Z,18.70
2018-09-06T20:04:10.690Z,18.67
2018-09-06T20:06:37.980Z,18.62
2018-09-06T20:09:06.268Z,18.60
2018-09-06T20:11:33.512Z,18.56
2018-09-06T20:14:00.656Z,18.55
2018-09-06T20:16:27.762Z,18.49
2018-09-06T20:18:54.985Z,18.47
2018-09-06T20:21:22.139Z,18.48
2018-09-06T20:23:49.326Z,18.44
2018-09-06T20:26:16.483Z,18.46
2018-09-06T20:28:43.616Z,18.47
2018-09-06T20:31:10.876Z,18.41
2018-09-06T20:33:38.047Z,18.38
2018-09-06T20:36:05.611Z,18.37
2018-09-06T20:38:32.729Z,18.39
2018-09-06T20:40:59.864Z,18.36
2018-09-06T20:43:27.180Z,18.36
2018-09-06T20:45:54.356Z,18.30
2018-09-06T20:48:21.522Z,18.23
2018-09-06T20:50:49.732Z,18.16
2018-09-06T20:53:16.862Z,18.15
2018-09-06T20:55:44.114Z,18.05
2018-09-06T20:58:11.277Z,18.06
2018-09-06T21:00:38.468Z,18.02
2018-09-06T21:03:05.745Z,17.89
2018-09-06T21:05:32.928Z,17.84
2018-09-06T21:08:00.212Z,17.80
2018-09-06T21:10:27.397Z,17.76
2018-09-06T21:12:54.632Z,17.71
2018-09-06T21:15:21.735Z,17.62
2018-09-06T21:17:48.862Z,17.58
2018-09-06T21:20:16.136Z,17.54
2018-09-06T21:22:43.252Z,17.44
2018-09-06T21:25:10.448Z,17.41
2018-09-06T21:27:37.604Z,17.34
2018-09-06T21:30:04.817Z,17.28
2018-09-06T21:32:32.098Z,17.26
2018-09-06T21:34:59.280Z,17.20
2018-09-06T21:37:26.459Z,17.17
2018-09-06T21:39:53.660Z,17.11
2018-09-06T21:42:20.838Z,17.10
2018-09-06T21:44:48.088Z,17.05
2018-09-06T21:47:15.207Z,16.99
2018-09-06T21:49:42.436Z,17.01
2018-09-06T21:52:09.548Z,16.97
2018-09-06T21:54:36.706Z,16.98
2018-09-06T21:57:04.831Z,16.94
2018-09-06T21:59:31.952Z,17.02
2018-09-06T22:01:59.156Z,16.97
2018-09-06T22:04:26.323Z,16.90
2018-09-06T22:06:53.460Z,16.87
2018-09-06T22:09:20.701Z,16.80
2018-09-06T22:11:48.453Z,16.83
2018-09-06T22:14:15.633Z,16.80
2018-09-06T22:16:42.807Z,16.74
2018-09-06T22:19:11.213Z,16.68
2018-09-06T22:21:39.380Z,16.63
2018-09-06T22:24:06.528Z,16.57
2018-09-06T22:26:33.790Z,16.54
2018-09-06T22:29:00.919Z,16.53
2018-09-06T22:31:28.136Z,16.47
2018-09-06T22:33:55.832Z,16.40
2018-09-06T22:36:23.376Z,16.33
2018-09-06T22:38:50.998Z,16.30
2018-09-06T22:41:18.198Z,16.25
2018-09-06T22:43:45.322Z,16.23
2018-09-06T22:46:12.771Z,16.22
2018-09-06T22:48:39.915Z,16.16
2018-09-06T22:51:07.105Z,16.09
2018-09-06T22:53:34.399Z,16.06
2018-09-06T22:56:02.039Z,16.04
2018-09-06T22:58:29.420Z,16.00
2018-09-06T23:00:56.575Z,15.96
2018-09-06T23:03:29.423Z,15.91
2018-09-06T23:06:01.109Z,15.86
2018-09-06T23:08:28.207Z,15.84
2018-09-06T23:10:55.483Z,15.78
2018-09-06T23:13:22.711Z,15.75
2018-09-06T23:15:51.040Z,15.71
2018-09-06T23:18:19.733Z,15.68
2018-09-06T23:20:47.890Z,15.67
2018-09-06T23:23:15.447Z,15.65
2018-09-06T23:25:42.612Z,15.65
2018-09-06T23:28:09.708Z,15.66
2018-09-06T23:30:36.817Z,15.65
2018-09-06T23:33:04.090Z,15.60
2018-09-06T23:35:31.287Z,15.56
2018-09-06T23:37:58.439Z,15.59
2018-09-06T23:40:25.604Z,15.56
2018-09-06T23:42:52.783Z,15.48
2018-09-06T23:45:19.958Z,15.49
2018-09-06T23:47:47.132Z,15.47
2018-09-06T23:50:14.228Z,15.47
2018-09-06T23:52:41.336Z,15.50
2018-09-06T23:55:08.502Z,15.48
2018-09-06T23:57:35.665Z,15.55
